Hlavní strana
METAR-TAF:

METAR-TAF

Letiště :

Carmi Municipal Airport

Carmi, Illinois, Spojené státy americké

zeměpisná šířka: 38-05-22N, zeměpisná délka: 088-07-23W, výška: 118 m

Aktuální stav počasí

Zpráva byla vytvořena před 24 minutami, v 18:15 UTC
Severní vítr 11 kt
Teplota 5°C
Vlhkost vzduchu 75%
Tlak 1022 hPa
Viditelnost: 16.1 km
Polojasno ve výšce 7000 ft
Oblačno až skoro zataženo ve výšce 8000 ft

METAR: KCUL 181815Z AUTO 36011KT 10SM SCT070 BKN080 05/01 A3018 RMK AO2

Čas: 12:39 (18:39 UTC)


TAF: chybějící

Stav a předpovědi počasí z více než 4 000 letišť (zprávy METAR a TAF).

Červené a žluté tečky na mapě představují dostupné meteorologické stanice.

Když kurzor umístíte na tečku, zobrazí se název stanice.

Pak kliknutím zobrazíte stav a předpověď počasí.

Chcete-li změnit mapu, kliknutím na zelené tlačítko se znaménkem +mapu přiblížíte, kliknutím na zelené tlačítko se znaménkem – mapu oddálíte a kliknutím na zelené šipky přejdete na sousední mapy.


METAR-TAF: